createdAt,value
2022-12-06T00:01:14.669Z,12.40
2022-12-06T00:03:42.214Z,15.17
2022-12-06T00:06:13.841Z,12.43
2022-12-06T00:08:41.118Z,12.87
2022-12-06T00:11:12.493Z,11.97
2022-12-06T00:13:40.081Z,13.23
2022-12-06T00:16:08.986Z,13.37
2022-12-06T00:18:36.626Z,13.25
2022-12-06T00:21:11.099Z,11.47
2022-12-06T00:23:42.392Z,11.73
2022-12-06T00:26:09.834Z,12.47
2022-12-06T00:28:37.285Z,10.57
2022-12-06T00:31:06.056Z,12.63
2022-12-06T00:33:34.212Z,11.13
2022-12-06T00:36:21.480Z,10.57
2022-12-06T00:38:48.546Z,10.70
2022-12-06T00:41:16.999Z,10.83
2022-12-06T00:43:44.384Z,13.17
2022-12-06T00:46:13.672Z,11.10
2022-12-06T00:48:40.739Z,12.43
2022-12-06T00:51:07.748Z,12.87
2022-12-06T00:53:34.773Z,13.98
2022-12-06T00:56:01.820Z,11.97
2022-12-06T00:58:28.897Z,12.20
2022-12-06T01:00:55.970Z,12.70
2022-12-06T01:03:23.456Z,13.63
2022-12-06T01:05:51.823Z,15.03
2022-12-06T01:08:19.380Z,13.37
2022-12-06T01:10:53.429Z,11.30
2022-12-06T01:13:20.741Z,14.53
2022-12-06T01:15:47.810Z,15.07
2022-12-06T01:18:14.951Z,14.40
2022-12-06T01:20:42.010Z,12.60
2022-12-06T01:23:09.047Z,12.83
2022-12-06T01:25:36.682Z,13.63
2022-12-06T01:28:03.790Z,11.27
2022-12-06T01:30:30.850Z,14.40
2022-12-06T01:32:57.906Z,13.73
2022-12-06T01:35:24.905Z,13.07
2022-12-06T01:37:51.871Z,12.17
2022-12-06T01:40:18.898Z,11.77
2022-12-06T01:42:45.860Z,11.13
2022-12-06T01:45:13.186Z,11.17
2022-12-06T01:47:42.246Z,13.73
2022-12-06T01:50:15.044Z,12.33
2022-12-06T01:52:41.979Z,11.23
2022-12-06T01:55:10.435Z,11.07
2022-12-06T01:57:37.497Z,12.53
2022-12-06T02:00:05.348Z,11.27
2022-12-06T02:02:32.441Z,12.07
2022-12-06T02:04:59.813Z,10.87
2022-12-06T02:07:27.629Z,11.40
2022-12-06T02:09:55.078Z,9.90
2022-12-06T02:12:22.043Z,9.97
2022-12-06T02:14:51.003Z,11.93
2022-12-06T02:17:23.537Z,10.33
2022-12-06T02:19:58.389Z,11.83
2022-12-06T02:22:31.614Z,9.73
2022-12-06T02:25:02.817Z,10.80
2022-12-06T02:27:55.410Z,9.70
2022-12-06T02:30:36.407Z,9.63
2022-12-06T02:33:11.715Z,10.33
2022-12-06T02:35:43.436Z,10.67
2022-12-06T02:38:24.490Z,10.33
2022-12-06T02:40:55.828Z,11.17
2022-12-06T02:43:25.827Z,11.00
2022-12-06T02:45:54.544Z,10.30
2022-12-06T02:48:22.630Z,10.57
2022-12-06T02:50:55.638Z,13.00
2022-12-06T02:53:24.630Z,10.33
2022-12-06T02:55:52.015Z,11.10
2022-12-06T02:58:18.984Z,10.30
2022-12-06T03:01:00.250Z,11.43
2022-12-06T03:03:42.130Z,10.90
2022-12-06T03:06:16.143Z,10.13
2022-12-06T03:09:00.346Z,10.73
2022-12-06T03:11:32.387Z,10.43
2022-12-06T03:14:02.251Z,9.63
2022-12-06T03:16:43.169Z,9.43
2022-12-06T03:19:16.810Z,10.80
2022-12-06T03:21:47.662Z,9.17
2022-12-06T03:24:15.483Z,11.13
2022-12-06T03:26:44.686Z,10.27
2022-12-06T03:29:12.874Z,12.87
2022-12-06T03:31:41.625Z,10.23
2022-12-06T03:34:15.848Z,9.10
2022-12-06T03:36:44.344Z,10.30
2022-12-06T03:39:13.204Z,13.60
2022-12-06T03:41:42.895Z,9.70
2022-12-06T03:44:09.980Z,9.50
2022-12-06T03:46:42.362Z,10.37
2022-12-06T03:49:15.031Z,9.10
2022-12-06T03:51:43.084Z,8.40
2022-12-06T03:54:10.526Z,9.63
2022-12-06T03:56:38.313Z,9.13
2022-12-06T03:59:05.749Z,8.77
2022-12-06T04:01:32.914Z,9.53
2022-12-06T04:03:59.989Z,10.37
2022-12-06T04:06:27.470Z,9.70
2022-12-06T04:09:14.419Z,8.97
2022-12-06T04:11:41.471Z,9.10
2022-12-06T04:14:08.481Z,8.53
2022-12-06T04:16:54.337Z,9.63
2022-12-06T04:19:21.346Z,8.23
2022-12-06T04:22:06.928Z,10.93
2022-12-06T04:24:33.953Z,9.33
2022-12-06T04:27:19.585Z,8.83
2022-12-06T04:30:05.625Z,8.87
2022-12-06T04:32:51.436Z,9.53
2022-12-06T04:35:37.269Z,9.73
2022-12-06T04:38:23.204Z,10.02
2022-12-06T04:40:50.190Z,9.13
2022-12-06T04:43:35.807Z,9.10
2022-12-06T04:46:02.834Z,11.97
2022-12-06T04:48:29.831Z,8.73
2022-12-06T04:50:56.816Z,9.67
2022-12-06T04:53:23.770Z,9.87
2022-12-06T04:55:51.852Z,10.17
2022-12-06T04:58:18.950Z,10.17
2022-12-06T05:00:46.106Z,9.27
2022-12-06T05:03:13.861Z,8.97
2022-12-06T05:05:41.331Z,8.80
2022-12-06T05:08:08.357Z,10.23
2022-12-06T05:10:35.461Z,9.47
2022-12-06T05:13:03.030Z,10.20
2022-12-06T05:15:30.321Z,8.80
2022-12-06T05:17:57.302Z,9.83
2022-12-06T05:20:24.288Z,11.73
2022-12-06T05:22:51.290Z,10.20
2022-12-06T05:25:18.285Z,10.57
2022-12-06T05:27:45.283Z,9.03
2022-12-06T05:30:12.738Z,10.20
2022-12-06T05:32:40.654Z,10.53
2022-12-06T05:35:08.247Z,10.97
2022-12-06T05:37:35.241Z,8.70
2022-12-06T05:40:02.945Z,9.23
2022-12-06T05:42:30.151Z,9.47
2022-12-06T05:44:57.176Z,9.53
2022-12-06T05:47:24.146Z,9.43
2022-12-06T05:49:51.172Z,9.90
2022-12-06T05:52:18.176Z,9.77
2022-12-06T05:54:45.139Z,9.97
2022-12-06T05:57:12.168Z,12.03
2022-12-06T05:59:39.163Z,9.73
2022-12-06T06:02:06.446Z,11.40
2022-12-06T06:04:33.519Z,9.43
2022-12-06T06:07:00.604Z,9.60
2022-12-06T06:09:27.621Z,12.20
2022-12-06T06:11:55.822Z,9.93
2022-12-06T06:14:23.104Z,12.27
2022-12-06T06:16:52.134Z,9.87
2022-12-06T06:19:19.451Z,9.77
2022-12-06T06:21:47.011Z,9.87
2022-12-06T06:24:13.979Z,10.07
2022-12-06T06:26:40.968Z,9.40
2022-12-06T06:29:07.974Z,9.33
2022-12-06T06:31:35.187Z,11.40
2022-12-06T06:34:02.203Z,11.15
2022-12-06T06:36:29.172Z,9.37
2022-12-06T06:38:56.282Z,10.00
2022-12-06T06:41:23.273Z,11.10
2022-12-06T06:43:50.249Z,7.97
2022-12-06T06:46:17.302Z,8.83
2022-12-06T06:48:44.399Z,8.70
2022-12-06T06:51:12.845Z,9.77
2022-12-06T06:53:39.951Z,9.87
2022-12-06T06:56:07.586Z,7.93
2022-12-06T06:58:34.792Z,7.47
2022-12-06T07:01:02.632Z,7.83
2022-12-06T07:03:29.863Z,9.53
2022-12-06T07:05:57.913Z,9.57
2022-12-06T07:08:25.576Z,11.80
2022-12-06T07:10:52.581Z,11.03
2022-12-06T07:13:20.617Z,13.67
2022-12-06T07:15:47.698Z,15.47
2022-12-06T07:18:16.746Z,13.70
2022-12-06T07:20:44.509Z,12.20
2022-12-06T07:23:11.480Z,11.63
2022-12-06T07:25:38.520Z,10.23
2022-12-06T07:28:05.900Z,15.07
2022-12-06T07:30:33.297Z,12.37
2022-12-06T07:33:00.354Z,13.80
2022-12-06T07:35:48.451Z,13.53
2022-12-06T07:38:14.347Z,10.80
2022-12-06T07:41:03.571Z,15.37
2022-12-06T07:43:47.131Z,9.50
2022-12-06T07:46:14.153Z,10.43
2022-12-06T07:48:41.214Z,11.63
2022-12-06T07:51:09.463Z,10.53
2022-12-06T07:53:36.546Z,9.47
2022-12-06T07:56:07.282Z,11.67
2022-12-06T07:58:34.261Z,8.57
2022-12-06T08:01:03.142Z,10.47
2022-12-06T08:03:30.292Z,8.97
2022-12-06T08:05:57.500Z,10.13
2022-12-06T08:08:28.433Z,10.50
2022-12-06T08:10:58.996Z,8.33
2022-12-06T08:13:25.961Z,10.10
2022-12-06T08:15:52.992Z,10.70
2022-12-06T08:18:20.029Z,9.43
2022-12-06T08:20:47.187Z,9.67
2022-12-06T08:23:14.393Z,8.23
2022-12-06T08:25:41.360Z,7.53
2022-12-06T08:28:08.335Z,11.07
2022-12-06T08:30:35.414Z,9.57
2022-12-06T08:33:02.446Z,9.13
2022-12-06T08:35:29.445Z,9.70
2022-12-06T08:37:56.417Z,8.03
2022-12-06T08:40:23.411Z,11.10
2022-12-06T08:42:50.388Z,12.00
2022-12-06T08:45:17.369Z,11.63
2022-12-06T08:47:44.336Z,9.67
2022-12-06T08:50:11.432Z,8.07
2022-12-06T08:52:38.411Z,12.50
2022-12-06T08:55:05.594Z,11.10
2022-12-06T08:57:33.020Z,8.90
2022-12-06T09:00:00.297Z,16.30
2022-12-06T09:02:27.638Z,16.87
2022-12-06T09:04:54.667Z,10.27
2022-12-06T09:07:23.321Z,10.37
2022-12-06T09:09:50.291Z,11.40
2022-12-06T09:12:17.258Z,8.90
2022-12-06T09:14:44.228Z,9.50
2022-12-06T09:17:11.284Z,9.47
2022-12-06T09:19:38.353Z,9.00
2022-12-06T09:22:05.370Z,8.97
2022-12-06T09:24:32.415Z,9.50
2022-12-06T09:26:59.410Z,9.50
2022-12-06T09:29:27.506Z,12.23
2022-12-06T09:31:54.902Z,10.17
2022-12-06T09:34:21.866Z,11.03
2022-12-06T09:36:48.821Z,11.97
2022-12-06T09:39:36.059Z,14.53
2022-12-06T09:42:09.209Z,17.00
2022-12-06T09:44:49.761Z,19.05
2022-12-06T09:47:26.678Z,17.77
2022-12-06T09:50:12.556Z,20.50
2022-12-06T09:52:42.638Z,17.77
2022-12-06T09:55:29.267Z,19.50
2022-12-06T09:58:16.830Z,19.93
2022-12-06T10:00:48.360Z,21.40
2022-12-06T10:03:34.927Z,18.93
2022-12-06T10:06:03.691Z,17.63
2022-12-06T10:08:43.494Z,19.10
2022-12-06T10:11:31.999Z,17.53
2022-12-06T10:13:58.965Z,21.40
2022-12-06T10:16:37.954Z,20.13
2022-12-06T10:19:13.232Z,17.37
2022-12-06T10:21:52.081Z,19.80
2022-12-06T10:24:28.654Z,14.17
2022-12-06T10:26:56.390Z,13.23
2022-12-06T10:29:29.816Z,13.70
2022-12-06T10:32:18.228Z,13.70
2022-12-06T10:34:56.379Z,13.50
2022-12-06T10:37:23.409Z,12.47
2022-12-06T10:39:53.754Z,11.37
2022-12-06T10:42:32.672Z,10.67
2022-12-06T10:44:59.600Z,9.13
2022-12-06T10:47:33.692Z,10.57
2022-12-06T10:50:01.072Z,9.17
2022-12-06T10:52:28.273Z,10.90
2022-12-06T10:55:13.379Z,12.03
2022-12-06T10:57:59.291Z,10.80
2022-12-06T11:00:27.279Z,11.93
2022-12-06T11:03:12.984Z,9.87
2022-12-06T11:06:03.041Z,12.47
2022-12-06T11:08:39.717Z,11.07
2022-12-06T11:11:10.633Z,11.93
2022-12-06T11:13:42.965Z,13.53
2022-12-06T11:16:17.605Z,11.67
2022-12-06T11:18:45.698Z,11.90
2022-12-06T11:21:31.743Z,18.50
2022-12-06T11:24:16.491Z,21.87
2022-12-06T11:26:52.576Z,13.67
2022-12-06T11:29:19.816Z,12.33
2022-12-06T11:31:52.021Z,10.57
2022-12-06T11:34:20.793Z,11.07
2022-12-06T11:36:49.296Z,8.70
2022-12-06T11:39:16.569Z,8.67
2022-12-06T11:41:44.582Z,10.00
2022-12-06T11:44:20.245Z,12.77
2022-12-06T11:46:49.138Z,17.60
2022-12-06T11:49:17.635Z,11.47
2022-12-06T11:51:44.614Z,10.33
2022-12-06T11:54:21.286Z,9.87
2022-12-06T11:56:48.618Z,11.53
2022-12-06T11:59:20.453Z,9.37
2022-12-06T12:01:50.087Z,9.23
2022-12-06T12:04:32.483Z,8.60
2022-12-06T12:07:01.430Z,7.47
2022-12-06T12:09:31.024Z,7.53
2022-12-06T12:12:02.518Z,7.50
2022-12-06T12:14:34.180Z,9.73
2022-12-06T12:17:02.667Z,9.03
2022-12-06T12:19:39.866Z,8.53
2022-12-06T12:22:16.229Z,10.63
2022-12-06T12:27:41.285Z,8.97
2022-12-06T12:30:28.240Z,8.70
2022-12-06T12:33:07.491Z,8.93
2022-12-06T12:35:35.694Z,10.17
2022-12-06T12:38:07.088Z,8.40
2022-12-06T12:40:34.050Z,10.77
2022-12-06T12:43:08.757Z,12.07
2022-12-06T12:45:35.876Z,13.10
2022-12-06T12:48:22.361Z,10.65
2022-12-06T12:51:03.173Z,9.77
2022-12-06T12:53:30.340Z,9.27
2022-12-06T12:56:17.241Z,10.27
2022-12-06T12:58:45.172Z,9.63
2022-12-06T13:01:32.488Z,9.50
2022-12-06T13:04:11.545Z,8.67
2022-12-06T13:07:17.397Z,7.87
2022-12-06T13:09:47.305Z,8.97
2022-12-06T13:12:18.690Z,10.33
2022-12-06T13:14:51.181Z,8.47
2022-12-06T13:17:18.219Z,7.83
2022-12-06T13:19:51.691Z,9.30
2022-12-06T13:22:23.826Z,9.67
2022-12-06T13:24:55.281Z,8.73
2022-12-06T13:27:22.848Z,9.13
2022-12-06T13:29:53.521Z,9.27
2022-12-06T13:32:22.501Z,9.57
2022-12-06T13:34:51.336Z,9.17
2022-12-06T13:37:28.844Z,8.17
2022-12-06T13:39:56.525Z,9.57
2022-12-06T13:42:40.599Z,7.70
2022-12-06T13:45:27.542Z,9.10
2022-12-06T13:47:54.551Z,7.03
2022-12-06T13:50:21.566Z,7.97
2022-12-06T13:52:48.534Z,9.70
2022-12-06T13:55:24.711Z,6.60
2022-12-06T13:58:00.604Z,7.87
2022-12-06T14:00:30.356Z,14.97
2022-12-06T14:02:58.551Z,6.03
2022-12-06T14:05:44.349Z,7.97
2022-12-06T14:08:12.457Z,19.13
2022-12-06T14:10:39.848Z,11.87
2022-12-06T14:13:06.867Z,5.77
2022-12-06T14:15:38.552Z,6.03
2022-12-06T14:18:12.746Z,7.33
2022-12-06T14:20:42.305Z,6.10
2022-12-06T14:23:28.211Z,6.93
2022-12-06T14:26:13.686Z,6.00
2022-12-06T14:28:42.167Z,7.10
2022-12-06T14:31:18.010Z,5.60
2022-12-06T14:33:45.145Z,5.73
2022-12-06T14:36:17.966Z,8.80
2022-12-06T14:38:51.322Z,6.23
2022-12-06T14:41:38.473Z,6.07
2022-12-06T14:44:14.349Z,6.68
2022-12-06T14:46:41.988Z,11.33
2022-12-06T14:49:35.677Z,6.60
2022-12-06T14:52:02.646Z,5.80
2022-12-06T14:54:32.872Z,6.40
2022-12-06T14:57:00.218Z,7.07
2022-12-06T15:00:11.018Z,6.57
2022-12-06T15:02:21.826Z,5.83
2022-12-06T15:04:49.040Z,6.30
2022-12-06T15:07:31.487Z,7.87
2022-12-06T15:10:08.027Z,6.93
2022-12-06T15:12:54.775Z,6.73
2022-12-06T15:15:54.638Z,7.73
2022-12-06T15:18:30.326Z,6.47
2022-12-06T15:20:57.361Z,7.03
2022-12-06T15:23:28.764Z,7.50
2022-12-06T15:25:55.804Z,7.87
2022-12-06T15:28:22.889Z,7.90
2022-12-06T15:30:50.397Z,6.77
2022-12-06T15:33:18.724Z,6.20
2022-12-06T15:35:45.980Z,6.50
2022-12-06T15:38:13.085Z,7.30
2022-12-06T15:40:41.578Z,7.27
2022-12-06T15:43:28.672Z,7.97
2022-12-06T15:45:56.202Z,7.10
2022-12-06T15:48:23.299Z,12.33
2022-12-06T15:50:50.375Z,12.70
2022-12-06T15:53:18.834Z,8.60
2022-12-06T15:55:45.998Z,10.37
2022-12-06T15:58:12.995Z,12.57
2022-12-06T16:00:39.994Z,9.05
2022-12-06T16:03:08.115Z,8.27
2022-12-06T16:05:35.525Z,10.47
2022-12-06T16:08:02.575Z,7.50
2022-12-06T16:11:03.108Z,6.70
2022-12-06T16:13:23.298Z,7.20
2022-12-06T16:15:51.404Z,8.47
2022-12-06T16:18:18.444Z,7.77
2022-12-06T16:20:45.507Z,9.80
2022-12-06T16:24:04.229Z,7.17
2022-12-06T16:26:19.669Z,8.03
2022-12-06T16:28:46.750Z,7.13
2022-12-06T16:31:14.236Z,8.20
2022-12-06T16:33:41.450Z,7.67
2022-12-06T16:36:22.430Z,7.33
2022-12-06T16:38:54.323Z,8.17
2022-12-06T16:41:23.417Z,7.60
2022-12-06T16:43:50.753Z,8.80
2022-12-06T16:46:17.742Z,8.13
2022-12-06T16:48:44.769Z,8.67
2022-12-06T16:51:11.964Z,7.50
2022-12-06T16:53:38.959Z,7.27
2022-12-06T16:56:06.064Z,7.93
2022-12-06T16:58:33.034Z,6.80
2022-12-06T17:01:00.518Z,8.03
2022-12-06T17:03:27.522Z,6.30
2022-12-06T17:05:54.767Z,7.27
2022-12-06T17:08:22.297Z,6.90
2022-12-06T17:11:09.426Z,9.90
2022-12-06T17:13:36.430Z,7.57
2022-12-06T17:16:07.138Z,8.40
2022-12-06T17:18:34.141Z,9.53
2022-12-06T17:21:05.715Z,8.97
2022-12-06T17:23:32.700Z,10.27
2022-12-06T17:25:59.718Z,9.37
2022-12-06T17:28:27.709Z,8.20
2022-12-06T17:30:54.702Z,8.40
2022-12-06T17:33:21.757Z,8.97
2022-12-06T17:35:49.347Z,7.57
2022-12-06T17:38:16.317Z,8.07
2022-12-06T17:46:10.574Z,9.00
2022-12-06T17:48:44.265Z,9.05
2022-12-06T17:51:11.938Z,7.97
2022-12-06T17:53:38.947Z,8.30
2022-12-06T17:56:24.668Z,7.60
2022-12-06T17:58:52.769Z,7.63
2022-12-06T18:01:19.906Z,7.47
2022-12-06T18:03:49.819Z,7.73
2022-12-06T18:06:16.818Z,9.03
2022-12-06T18:08:43.802Z,8.47
2022-12-06T18:11:10.809Z,8.23
2022-12-06T18:13:37.768Z,8.47
2022-12-06T18:16:23.977Z,8.17
2022-12-06T18:18:52.485Z,8.37
2022-12-06T18:21:19.658Z,8.40
2022-12-06T18:24:19.831Z,7.03
2022-12-06T18:26:36.211Z,7.83
2022-12-06T18:29:05.971Z,7.50
2022-12-06T18:31:37.112Z,8.80
2022-12-06T18:34:05.571Z,8.30
2022-12-06T18:36:32.722Z,8.03
2022-12-06T18:39:09.490Z,8.00
2022-12-06T18:41:39.594Z,7.77
2022-12-06T18:44:08.009Z,6.83
2022-12-06T18:46:35.024Z,6.73
2022-12-06T18:49:02.549Z,8.20
2022-12-06T18:51:30.937Z,7.47
2022-12-06T18:53:58.998Z,7.57
2022-12-06T18:56:26.996Z,7.73
2022-12-06T18:58:54.024Z,7.00
2022-12-06T19:01:22.244Z,6.50
2022-12-06T19:03:49.687Z,10.03
2022-12-06T19:06:16.742Z,8.40
2022-12-06T19:08:44.190Z,8.43
2022-12-06T19:11:17.602Z,7.85
2022-12-06T19:13:53.205Z,7.17
2022-12-06T19:16:22.605Z,7.63
2022-12-06T19:18:50.597Z,8.27
2022-12-06T19:21:18.962Z,7.40
2022-12-06T19:23:46.492Z,12.30
2022-12-06T19:26:14.331Z,16.15
2022-12-06T19:28:42.047Z,10.23
2022-12-06T19:31:10.652Z,10.13
2022-12-06T19:33:39.054Z,13.83
2022-12-06T19:36:07.726Z,9.83
2022-12-06T19:38:35.168Z,10.23
2022-12-06T19:41:03.741Z,10.53
2022-12-06T19:43:49.501Z,8.80
2022-12-06T19:46:21.760Z,9.27
2022-12-06T19:48:49.524Z,13.60
2022-12-06T19:51:17.002Z,11.48
2022-12-06T19:53:44.003Z,12.23
2022-12-06T19:56:13.028Z,10.77
2022-12-06T19:58:40.483Z,9.57
2022-12-06T20:01:11.389Z,11.43
2022-12-06T20:03:38.450Z,23.13
2022-12-06T20:06:12.887Z,10.40
2022-12-06T20:08:47.190Z,12.60
2022-12-06T20:11:34.004Z,8.90
2022-12-06T20:14:01.709Z,10.80
2022-12-06T20:16:28.713Z,9.23
2022-12-06T20:18:55.968Z,9.23
2022-12-06T20:21:23.067Z,8.67
2022-12-06T20:23:50.108Z,10.80
2022-12-06T20:26:17.170Z,9.07
2022-12-06T20:28:45.043Z,9.93
2022-12-06T20:31:12.924Z,10.30
2022-12-06T20:33:40.376Z,10.33
2022-12-06T20:36:10.281Z,9.40
2022-12-06T20:38:37.359Z,9.60
2022-12-06T20:41:14.858Z,11.00
2022-12-06T20:43:42.388Z,11.10
2022-12-06T20:46:15.036Z,12.13
2022-12-06T20:48:43.379Z,31.17
2022-12-06T20:51:11.964Z,7.77
2022-12-06T20:53:39.181Z,7.10
2022-12-06T20:56:07.301Z,6.53
2022-12-06T20:58:34.374Z,7.33
2022-12-06T21:01:01.918Z,8.20
2022-12-06T21:03:29.520Z,8.07
2022-12-06T21:06:03.831Z,7.43
2022-12-06T21:08:31.167Z,9.77
2022-12-06T21:11:25.764Z,8.88
2022-12-06T21:13:45.816Z,9.83
2022-12-06T21:16:16.135Z,10.07
2022-12-06T21:18:43.733Z,8.87
2022-12-06T21:21:11.068Z,7.63
2022-12-06T21:23:39.345Z,7.67
2022-12-06T21:26:06.944Z,7.63
2022-12-06T21:28:34.338Z,11.23
2022-12-06T21:31:01.458Z,12.33
2022-12-06T21:33:28.679Z,11.23
2022-12-06T21:35:58.839Z,9.13
2022-12-06T21:38:26.238Z,11.10
2022-12-06T21:41:01.541Z,9.43
2022-12-06T21:43:28.840Z,10.57
2022-12-06T21:45:56.421Z,8.27
2022-12-06T21:48:23.489Z,8.87
2022-12-06T21:50:50.504Z,10.73
2022-12-06T21:53:17.560Z,9.63
2022-12-06T21:55:44.806Z,11.50
2022-12-06T21:58:11.917Z,9.90
2022-12-06T22:00:38.927Z,11.40
2022-12-06T22:03:05.979Z,17.73
2022-12-06T22:05:32.982Z,12.20
2022-12-06T22:08:00.019Z,10.80
2022-12-06T22:10:27.037Z,13.60
2022-12-06T22:12:54.051Z,12.50
2022-12-06T22:15:21.034Z,15.40
2022-12-06T22:17:48.036Z,11.23
2022-12-06T22:20:15.074Z,19.93
2022-12-06T22:22:42.053Z,24.57
2022-12-06T22:25:09.304Z,17.23
2022-12-06T22:27:36.356Z,19.17
2022-12-06T22:30:03.667Z,16.47
2022-12-06T22:32:33.616Z,21.83
2022-12-06T22:35:00.594Z,26.03
2022-12-06T22:37:28.692Z,26.67
2022-12-06T22:39:55.879Z,38.53
2022-12-06T22:42:23.008Z,26.33
2022-12-06T22:44:50.021Z,12.43
2022-12-06T22:47:17.087Z,13.77
2022-12-06T22:49:44.255Z,10.90
2022-12-06T22:52:11.242Z,12.17
2022-12-06T22:54:38.201Z,13.10
2022-12-06T22:57:05.226Z,12.10
2022-12-06T22:59:32.310Z,13.40
2022-12-06T23:01:59.403Z,11.50
2022-12-06T23:04:27.616Z,12.17
2022-12-06T23:06:54.641Z,13.50
2022-12-06T23:09:21.871Z,10.87
2022-12-06T23:11:48.978Z,12.40
2022-12-06T23:14:16.049Z,10.70
2022-12-06T23:16:45.197Z,10.53
2022-12-06T23:19:12.433Z,13.60
2022-12-06T23:21:40.963Z,12.47
2022-12-06T23:24:08.799Z,11.67
2022-12-06T23:26:37.133Z,10.23
2022-12-06T23:29:04.552Z,11.77
2022-12-06T23:31:33.523Z,12.60
2022-12-06T23:34:01.987Z,11.67
2022-12-06T23:36:29.813Z,10.50
2022-12-06T23:38:57.025Z,12.03
2022-12-06T23:41:25.282Z,10.57
2022-12-06T23:43:53.391Z,10.77
2022-12-06T23:46:22.617Z,9.77
2022-12-06T23:48:50.452Z,12.63
2022-12-06T23:51:18.820Z,10.30
2022-12-06T23:53:49.821Z,9.77
2022-12-06T23:56:17.835Z,11.43
2022-12-06T23:58:45.374Z,10.87
